createdAt,value
2019-03-24T00:00:31.898Z,99.90
2019-03-24T00:03:01.388Z,93.77
2019-03-24T00:05:30.813Z,93.50
2019-03-24T00:08:00.230Z,101.87
2019-03-24T00:10:29.653Z,94.50
2019-03-24T00:12:59.162Z,102.27
2019-03-24T00:15:28.579Z,95.60
2019-03-24T00:17:57.987Z,104.07
2019-03-24T00:20:27.416Z,95.93
2019-03-24T00:22:56.857Z,97.00
2019-03-24T00:25:26.279Z,90.83
2019-03-24T00:27:55.687Z,90.67
2019-03-24T00:30:25.123Z,93.10
2019-03-24T00:32:54.574Z,92.13
2019-03-24T00:35:23.996Z,95.07
2019-03-24T00:37:53.407Z,93.73
2019-03-24T00:40:22.825Z,93.33
2019-03-24T00:42:52.243Z,101.90
2019-03-24T00:45:21.734Z,98.50
2019-03-24T00:47:51.146Z,101.07
2019-03-24T00:50:20.591Z,95.50
2019-03-24T00:52:49.982Z,100.13
2019-03-24T00:55:19.465Z,98.53
2019-03-24T00:57:48.866Z,95.83
2019-03-24T01:00:21.336Z,91.97
2019-03-24T01:02:50.748Z,91.67
2019-03-24T01:05:20.398Z,96.67
2019-03-24T01:07:49.872Z,96.73
2019-03-24T01:10:19.312Z,97.30
2019-03-24T01:12:48.715Z,98.73
2019-03-24T01:15:18.139Z,98.97
2019-03-24T01:17:47.604Z,95.97
2019-03-24T01:20:18.500Z,88.20
2019-03-24T01:22:47.910Z,89.03
2019-03-24T01:25:17.361Z,89.23
2019-03-24T01:27:46.804Z,87.23
2019-03-24T01:30:16.273Z,99.17
2019-03-24T01:32:45.714Z,98.57
2019-03-24T01:35:15.386Z,102.20
2019-03-24T01:37:44.787Z,89.67
2019-03-24T01:40:14.353Z,99.03
2019-03-24T01:42:43.747Z,97.60
2019-03-24T01:45:13.511Z,88.57
2019-03-24T01:47:42.925Z,100.33
2019-03-24T01:50:12.791Z,100.33
2019-03-24T01:52:42.199Z,105.00
2019-03-24T01:55:12.067Z,106.27
2019-03-24T01:57:41.537Z,105.57
2019-03-24T02:00:11.243Z,90.50
2019-03-24T02:02:40.735Z,104.90
2019-03-24T02:05:10.398Z,98.20
2019-03-24T02:07:39.849Z,94.30
2019-03-24T02:10:09.991Z,89.47
2019-03-24T02:12:39.398Z,98.77
2019-03-24T02:15:09.744Z,88.77
2019-03-24T02:17:39.236Z,91.00
2019-03-24T02:20:09.526Z,94.30
2019-03-24T02:22:38.951Z,88.77
2019-03-24T02:25:08.691Z,96.43
2019-03-24T02:27:38.121Z,95.60
2019-03-24T02:30:09.683Z,92.27
2019-03-24T02:32:39.104Z,93.67
2019-03-24T02:35:08.979Z,93.87
2019-03-24T02:37:38.387Z,88.83
2019-03-24T02:40:08.552Z,89.40
2019-03-24T02:42:37.955Z,84.83
2019-03-24T02:45:08.304Z,84.03
2019-03-24T02:47:37.789Z,91.37
2019-03-24T02:50:08.434Z,88.37
2019-03-24T02:52:37.867Z,88.70
2019-03-24T02:55:08.198Z,88.20
2019-03-24T02:57:37.635Z,90.73
2019-03-24T03:00:10.302Z,95.77
2019-03-24T03:02:39.831Z,89.80
2019-03-24T03:05:10.062Z,89.53
2019-03-24T03:07:39.467Z,95.23
2019-03-24T03:10:09.030Z,93.00
2019-03-24T03:12:38.460Z,90.03
2019-03-24T03:15:08.762Z,105.57
2019-03-24T03:17:38.330Z,100.17
2019-03-24T03:20:09.617Z,105.00
2019-03-24T03:22:39.110Z,96.60
2019-03-24T03:25:09.048Z,89.00
2019-03-24T03:27:38.549Z,88.90
2019-03-24T03:30:08.726Z,95.60
2019-03-24T03:32:38.180Z,99.90
2019-03-24T03:35:09.632Z,93.37
2019-03-24T03:37:39.049Z,92.30
2019-03-24T03:40:10.094Z,92.60
2019-03-24T03:42:40.106Z,95.60
2019-03-24T03:45:11.545Z,92.00
2019-03-24T03:47:41.022Z,84.33
2019-03-24T03:50:10.602Z,86.23
2019-03-24T03:52:40.032Z,80.33
2019-03-24T03:55:09.872Z,79.67
2019-03-24T03:57:39.296Z,84.80
2019-03-24T04:00:09.038Z,81.93
2019-03-24T04:02:38.540Z,89.90
2019-03-24T04:05:08.284Z,88.60
2019-03-24T04:07:37.693Z,83.10
2019-03-24T04:10:07.233Z,84.47
2019-03-24T04:12:36.654Z,81.97
2019-03-24T04:15:09.645Z,89.03
2019-03-24T04:17:39.049Z,83.47
2019-03-24T04:20:08.613Z,87.10
2019-03-24T04:22:38.046Z,81.13
2019-03-24T04:25:07.588Z,86.20
2019-03-24T04:27:37.100Z,85.30
2019-03-24T04:30:07.753Z,80.87
2019-03-24T04:32:37.310Z,80.63
2019-03-24T04:35:09.697Z,79.23
2019-03-24T04:37:39.125Z,82.33
2019-03-24T04:40:08.768Z,83.03
2019-03-24T04:42:38.193Z,79.73
2019-03-24T04:45:07.840Z,83.23
2019-03-24T04:47:37.343Z,74.27
2019-03-24T04:50:10.285Z,79.70
2019-03-24T04:52:39.711Z,77.97
2019-03-24T04:55:09.559Z,76.20
2019-03-24T04:57:38.979Z,77.70
2019-03-24T05:00:10.319Z,77.67
2019-03-24T05:02:39.768Z,81.67
2019-03-24T05:05:09.525Z,80.67
2019-03-24T05:07:40.449Z,82.47
2019-03-24T05:10:12.898Z,77.70
2019-03-24T05:12:42.423Z,78.40
2019-03-24T05:15:11.893Z,74.10
2019-03-24T05:17:41.321Z,74.67
2019-03-24T05:20:10.859Z,76.93
2019-03-24T05:22:40.329Z,75.17
2019-03-24T05:25:09.804Z,73.90
2019-03-24T05:27:39.260Z,78.23
2019-03-24T05:30:08.814Z,72.20
2019-03-24T05:32:38.294Z,80.13
2019-03-24T05:35:08.832Z,74.40
2019-03-24T05:37:38.285Z,72.10
2019-03-24T05:40:07.846Z,74.53
2019-03-24T05:42:37.232Z,71.43
2019-03-24T05:45:07.398Z,75.30
2019-03-24T05:47:37.575Z,72.63
2019-03-24T05:50:08.912Z,72.77
2019-03-24T05:52:38.355Z,65.77
2019-03-24T05:55:08.216Z,61.83
2019-03-24T05:57:38.230Z,64.93
2019-03-24T06:00:08.390Z,59.00
2019-03-24T06:02:37.853Z,57.77
2019-03-24T06:05:07.717Z,65.07
2019-03-24T06:07:37.137Z,60.73
2019-03-24T06:10:09.479Z,65.30
2019-03-24T06:12:38.898Z,64.57
2019-03-24T06:15:09.349Z,59.80
2019-03-24T06:17:47.334Z,62.37
2019-03-24T06:20:10.325Z,76.20
2019-03-24T06:22:39.904Z,66.73
2019-03-24T06:25:12.341Z,62.30
2019-03-24T06:27:41.740Z,63.00
2019-03-24T06:30:11.347Z,75.53
2019-03-24T06:32:40.761Z,61.30
2019-03-24T06:35:10.324Z,63.87
2019-03-24T06:37:39.717Z,69.30
2019-03-24T06:40:09.379Z,62.87
2019-03-24T06:42:38.771Z,64.63
2019-03-24T06:45:08.435Z,50.27
2019-03-24T06:47:37.840Z,58.73
2019-03-24T06:50:08.471Z,61.10
2019-03-24T06:52:37.877Z,54.83
2019-03-24T06:55:07.575Z,61.70
2019-03-24T06:57:36.985Z,54.07
2019-03-24T07:00:10.749Z,54.60
2019-03-24T07:02:40.158Z,60.40
2019-03-24T07:05:13.211Z,60.40
2019-03-24T07:07:43.141Z,59.23
2019-03-24T07:10:13.634Z,53.47
2019-03-24T07:12:43.083Z,60.73
2019-03-24T07:15:12.711Z,55.17
2019-03-24T07:17:42.198Z,60.23
2019-03-24T07:20:14.788Z,53.93
2019-03-24T07:22:44.508Z,58.50
2019-03-24T07:25:14.006Z,55.00
2019-03-24T07:27:43.408Z,56.90
2019-03-24T07:30:13.297Z,54.33
2019-03-24T07:32:42.680Z,53.33
2019-03-24T07:35:12.268Z,50.27
2019-03-24T07:37:41.720Z,52.90
2019-03-24T07:40:14.391Z,56.03
2019-03-24T07:42:43.791Z,53.87
2019-03-24T07:45:13.392Z,56.43
2019-03-24T07:47:42.832Z,56.90
2019-03-24T07:50:12.301Z,58.73
2019-03-24T07:52:41.783Z,56.57
2019-03-24T07:55:11.486Z,53.23
2019-03-24T07:57:41.151Z,44.77
2019-03-24T08:00:12.727Z,50.53
2019-03-24T08:02:51.012Z,50.23
2019-03-24T08:05:16.314Z,54.03
2019-03-24T08:07:45.802Z,47.37
2019-03-24T08:10:15.665Z,44.13
2019-03-24T08:12:45.102Z,49.30
2019-03-24T08:15:14.720Z,46.80
2019-03-24T08:17:44.135Z,47.10
2019-03-24T08:20:13.697Z,44.47
2019-03-24T08:22:43.117Z,45.93
2019-03-24T08:25:12.629Z,50.37
2019-03-24T08:27:42.175Z,49.60
2019-03-24T08:30:11.739Z,50.90
2019-03-24T08:32:41.148Z,47.73
2019-03-24T08:35:10.669Z,44.23
2019-03-24T08:37:41.652Z,45.83
2019-03-24T08:40:11.070Z,48.70
2019-03-24T08:42:40.628Z,46.97
2019-03-24T08:45:13.934Z,43.00
2019-03-24T08:47:43.367Z,47.87
2019-03-24T08:50:12.832Z,43.70
2019-03-24T08:52:42.273Z,44.40
2019-03-24T08:55:11.955Z,47.30
2019-03-24T08:57:41.388Z,39.33
2019-03-24T09:00:11.208Z,38.50
2019-03-24T09:02:40.628Z,43.90
2019-03-24T09:05:10.378Z,48.07
2019-03-24T09:07:39.881Z,39.77
2019-03-24T09:10:12.357Z,39.87
2019-03-24T09:12:42.450Z,39.70
2019-03-24T09:15:14.013Z,41.97
2019-03-24T09:17:47.740Z,39.57
2019-03-24T09:20:17.210Z,35.20
2019-03-24T09:22:46.745Z,43.20
2019-03-24T09:25:16.447Z,38.13
2019-03-24T09:27:45.819Z,40.57
2019-03-24T09:30:29.496Z,39.10
2019-03-24T09:32:58.996Z,32.15
2019-03-24T09:35:28.409Z,40.45
2019-03-24T09:37:58.174Z,32.05
2019-03-24T09:40:29.418Z,38.15
2019-03-24T09:42:59.991Z,35.03
2019-03-24T09:45:31.005Z,36.88
2019-03-24T09:48:00.592Z,36.13
2019-03-24T09:50:30.280Z,37.35
2019-03-24T09:52:59.878Z,42.08
2019-03-24T09:55:29.286Z,34.45
2019-03-24T09:57:58.789Z,33.42
2019-03-24T10:00:28.204Z,41.92
2019-03-24T10:02:57.644Z,29.40
2019-03-24T10:05:27.113Z,35.88
2019-03-24T10:07:56.809Z,41.92
2019-03-24T10:10:26.213Z,37.28
2019-03-24T10:12:55.633Z,35.20
2019-03-24T10:15:25.071Z,32.03
2019-03-24T10:17:54.507Z,30.90
2019-03-24T10:20:23.967Z,31.82
2019-03-24T10:22:53.475Z,39.53
2019-03-24T10:25:22.896Z,40.90
2019-03-24T10:27:52.327Z,47.05
2019-03-24T10:30:21.737Z,39.73
2019-03-24T10:32:51.192Z,44.18
2019-03-24T10:35:20.589Z,43.75
2019-03-24T10:37:50.022Z,42.50
2019-03-24T10:40:28.168Z,38.85
2019-03-24T10:42:50.560Z,37.80
2019-03-24T10:45:19.982Z,37.30
2019-03-24T10:47:49.420Z,37.88
2019-03-24T10:50:18.953Z,42.08
2019-03-24T10:52:48.381Z,41.10
2019-03-24T10:55:18.081Z,34.05
2019-03-24T10:57:47.515Z,41.30
2019-03-24T11:00:19.992Z,39.95
2019-03-24T11:02:49.512Z,39.58
2019-03-24T11:05:18.931Z,45.10
2019-03-24T11:07:48.423Z,38.67
2019-03-24T11:10:17.988Z,45.10
2019-03-24T11:12:47.411Z,36.88
2019-03-24T11:15:16.850Z,42.17
2019-03-24T11:17:46.277Z,33.45
2019-03-24T11:20:15.760Z,42.10
2019-03-24T11:22:45.178Z,39.10
2019-03-24T11:25:14.743Z,45.70
2019-03-24T11:27:44.170Z,31.97
2019-03-24T11:30:14.335Z,33.60
2019-03-24T11:32:43.910Z,38.73
2019-03-24T11:35:13.402Z,41.23
2019-03-24T11:37:42.824Z,40.17
2019-03-24T11:40:12.860Z,33.95
2019-03-24T11:42:42.292Z,34.95
2019-03-24T11:45:12.629Z,42.35
2019-03-24T11:47:42.048Z,32.05
2019-03-24T11:50:12.504Z,28.73
2019-03-24T11:52:41.938Z,34.13
2019-03-24T11:55:12.884Z,34.63
2019-03-24T11:57:42.312Z,35.73
2019-03-24T12:00:14.784Z,46.92
2019-03-24T12:02:44.214Z,39.78
2019-03-24T12:05:13.851Z,36.45
2019-03-24T12:07:43.302Z,34.05
2019-03-24T12:10:13.349Z,43.95
2019-03-24T12:12:42.775Z,46.28
2019-03-24T12:15:12.426Z,44.35
2019-03-24T12:17:41.865Z,39.87
2019-03-24T12:20:11.719Z,52.43
2019-03-24T12:22:41.124Z,44.90
2019-03-24T12:25:10.729Z,54.17
2019-03-24T12:27:40.210Z,49.37
2019-03-24T12:30:10.504Z,52.90
2019-03-24T12:32:39.899Z,48.13
2019-03-24T12:35:09.669Z,53.10
2019-03-24T12:37:39.086Z,52.23
2019-03-24T12:40:09.953Z,49.87
2019-03-24T12:42:39.536Z,46.17
2019-03-24T12:45:10.799Z,49.00
2019-03-24T12:47:40.193Z,47.43
2019-03-24T12:50:11.566Z,52.90
2019-03-24T12:52:40.981Z,49.40
2019-03-24T12:55:10.540Z,46.80
2019-03-24T12:57:39.955Z,49.57
2019-03-24T13:00:15.461Z,54.97
2019-03-24T13:02:44.904Z,46.20
2019-03-24T13:05:14.509Z,48.87
2019-03-24T13:07:43.912Z,48.40
2019-03-24T13:10:13.398Z,47.43
2019-03-24T13:12:42.806Z,45.57
2019-03-24T13:15:12.537Z,52.43
2019-03-24T13:17:42.044Z,44.37
2019-03-24T13:20:19.774Z,46.20
2019-03-24T13:22:42.763Z,51.43
2019-03-24T13:25:12.191Z,48.40
2019-03-24T13:27:41.594Z,53.10
2019-03-24T13:30:12.068Z,52.57
2019-03-24T13:32:42.046Z,44.17
2019-03-24T13:35:11.556Z,49.50
2019-03-24T13:37:40.973Z,41.67
2019-03-24T13:40:10.543Z,43.77
2019-03-24T13:42:39.943Z,39.50
2019-03-24T13:45:09.583Z,49.97
2019-03-24T13:47:38.985Z,46.37
2019-03-24T13:50:08.752Z,49.40
2019-03-24T13:52:38.155Z,45.13
2019-03-24T13:55:07.587Z,46.27
2019-03-24T13:57:36.986Z,45.67
2019-03-24T14:00:07.743Z,51.03
2019-03-24T14:02:37.140Z,43.77
2019-03-24T14:05:06.747Z,50.83
2019-03-24T14:07:36.218Z,45.43
2019-03-24T14:10:07.300Z,44.40
2019-03-24T14:12:36.726Z,43.27
2019-03-24T14:15:07.897Z,38.00
2019-03-24T14:17:37.672Z,44.73
2019-03-24T14:20:11.345Z,42.73
2019-03-24T14:22:40.838Z,40.43
2019-03-24T14:25:10.408Z,43.57
2019-03-24T14:27:39.816Z,40.73
2019-03-24T14:30:10.075Z,36.00
2019-03-24T14:32:39.486Z,37.20
2019-03-24T14:35:09.133Z,36.53
2019-03-24T14:37:38.783Z,37.17
2019-03-24T14:40:09.247Z,38.17
2019-03-24T14:42:38.650Z,39.23
2019-03-24T14:45:08.809Z,37.33
2019-03-24T14:47:39.447Z,36.87
2019-03-24T14:50:09.429Z,37.77
2019-03-24T14:52:38.839Z,37.20
2019-03-24T14:55:08.428Z,44.10
2019-03-24T14:57:37.832Z,36.97
2019-03-24T15:00:09.001Z,34.23
2019-03-24T15:02:40.776Z,33.57
2019-03-24T15:05:09.783Z,33.83
2019-03-24T15:07:39.212Z,40.97
2019-03-24T15:10:08.891Z,39.17
2019-03-24T15:12:38.305Z,35.13
2019-03-24T15:15:07.801Z,38.60
2019-03-24T15:17:37.217Z,37.90
2019-03-24T15:20:07.829Z,35.77
2019-03-24T15:22:37.260Z,38.20
2019-03-24T15:25:07.354Z,39.70
2019-03-24T15:27:36.756Z,36.40
2019-03-24T15:30:08.137Z,39.80
2019-03-24T15:32:37.543Z,34.83
2019-03-24T15:35:08.214Z,38.87
2019-03-24T15:37:37.634Z,32.83
2019-03-24T15:40:07.491Z,39.70
2019-03-24T15:42:36.901Z,42.90
2019-03-24T15:45:07.774Z,36.10
2019-03-24T15:47:37.179Z,42.03
2019-03-24T15:50:08.268Z,37.63
2019-03-24T15:52:37.838Z,37.13
2019-03-24T15:55:07.513Z,36.70
2019-03-24T15:57:36.926Z,41.70
2019-03-24T16:00:08.059Z,33.97
2019-03-24T16:02:37.480Z,34.03
2019-03-24T16:05:07.385Z,34.73
2019-03-24T16:07:36.788Z,35.63
2019-03-24T16:10:07.655Z,35.07
2019-03-24T16:12:37.076Z,34.27
2019-03-24T16:15:08.635Z,31.40
2019-03-24T16:17:38.030Z,31.53
2019-03-24T16:20:07.800Z,33.57
2019-03-24T16:22:37.233Z,32.73
2019-03-24T16:25:08.352Z,31.93
2019-03-24T16:27:37.783Z,34.50
2019-03-24T16:30:08.308Z,31.97
2019-03-24T16:32:37.742Z,29.57
2019-03-24T16:35:07.490Z,29.80
2019-03-24T16:37:36.916Z,27.83
2019-03-24T16:40:08.083Z,29.17
2019-03-24T16:42:37.514Z,31.27
2019-03-24T16:45:07.253Z,31.10
2019-03-24T16:47:36.691Z,28.40
2019-03-24T16:50:07.840Z,32.07
2019-03-24T16:52:37.249Z,32.37
2019-03-24T16:55:07.311Z,32.10
2019-03-24T16:57:36.747Z,32.13
2019-03-24T17:00:07.802Z,33.80
2019-03-24T17:02:37.233Z,44.70
2019-03-24T17:05:07.889Z,28.23
2019-03-24T17:07:37.339Z,27.23
2019-03-24T17:10:09.745Z,32.43
2019-03-24T17:12:39.177Z,27.27
2019-03-24T17:15:09.725Z,23.67
2019-03-24T17:17:39.145Z,25.00
2019-03-24T17:20:09.814Z,22.73
2019-03-24T17:22:39.251Z,23.13
2019-03-24T17:25:09.195Z,26.53
2019-03-24T17:27:38.700Z,26.10
2019-03-24T17:30:11.172Z,25.17
2019-03-24T17:32:40.585Z,25.33
2019-03-24T17:35:10.643Z,26.50
2019-03-24T17:37:40.090Z,23.43
2019-03-24T17:40:12.475Z,27.60
2019-03-24T17:42:41.728Z,28.00
2019-03-24T17:45:12.282Z,26.17
2019-03-24T17:47:41.809Z,23.90
2019-03-24T17:50:12.168Z,25.40
2019-03-24T17:52:41.761Z,23.47
2019-03-24T17:55:11.498Z,23.97
2019-03-24T17:57:40.921Z,24.73
2019-03-24T18:00:15.092Z,21.80
2019-03-24T18:02:44.570Z,23.47
2019-03-24T18:05:14.922Z,22.90
2019-03-24T18:07:44.488Z,24.57
2019-03-24T18:10:14.136Z,26.83
2019-03-24T18:12:43.568Z,27.60
2019-03-24T18:15:13.130Z,26.63
2019-03-24T18:17:42.552Z,27.83
2019-03-24T18:20:13.957Z,26.40
2019-03-24T18:22:43.384Z,25.53
2019-03-24T18:25:13.050Z,26.47
2019-03-24T18:27:42.484Z,29.27
2019-03-24T18:30:12.633Z,29.63
2019-03-24T18:32:42.102Z,26.60
2019-03-24T18:35:11.853Z,28.50
2019-03-24T18:37:41.285Z,27.33
2019-03-24T18:40:11.141Z,27.90
2019-03-24T18:42:40.563Z,28.13
2019-03-24T18:45:11.716Z,24.73
2019-03-24T18:47:41.148Z,25.80
2019-03-24T18:50:11.599Z,28.47
2019-03-24T18:52:41.069Z,25.03
2019-03-24T18:55:10.796Z,26.20
2019-03-24T18:57:40.313Z,27.07
2019-03-24T19:00:11.969Z,25.70
2019-03-24T19:02:41.543Z,22.57
2019-03-24T19:05:11.439Z,24.73
2019-03-24T19:07:40.887Z,24.40
2019-03-24T19:10:12.061Z,24.23
2019-03-24T19:12:41.547Z,25.90
2019-03-24T19:15:13.810Z,25.53
2019-03-24T19:17:43.313Z,25.17
2019-03-24T19:20:13.658Z,26.73
2019-03-24T19:23:08.164Z,24.73
2019-03-24T19:25:57.111Z,22.20
2019-03-24T19:28:26.595Z,24.63
2019-03-24T19:30:56.036Z,29.80
2019-03-24T19:33:25.491Z,31.00
2019-03-24T19:35:54.977Z,52.80
2019-03-24T19:38:24.490Z,53.33
2019-03-24T19:40:53.901Z,29.97
2019-03-24T19:43:23.340Z,33.20
2019-03-24T19:45:52.811Z,31.47
2019-03-24T19:48:22.255Z,27.00
2019-03-24T19:50:51.667Z,25.40
2019-03-24T19:53:21.155Z,25.40
2019-03-24T19:55:50.648Z,25.23
2019-03-24T19:58:20.098Z,25.77
2019-03-24T20:00:49.532Z,25.13
2019-03-24T20:03:18.988Z,24.03
2019-03-24T20:05:48.389Z,22.93
2019-03-24T20:08:17.806Z,25.53
2019-03-24T20:10:47.243Z,29.93
2019-03-24T20:13:16.677Z,38.60
2019-03-24T20:15:46.078Z,50.97
2019-03-24T20:18:15.494Z,44.43
2019-03-24T20:20:45.071Z,34.93
2019-03-24T20:23:14.501Z,32.13
2019-03-24T20:25:43.880Z,29.40
2019-03-24T20:28:13.778Z,28.17
2019-03-24T20:30:43.174Z,27.63
2019-03-24T20:33:12.605Z,27.93
2019-03-24T20:35:42.004Z,26.83
2019-03-24T20:38:11.426Z,26.83
2019-03-24T20:40:40.835Z,26.17
2019-03-24T20:43:10.258Z,27.67
2019-03-24T20:45:39.664Z,29.73
2019-03-24T20:48:09.077Z,25.97
2019-03-24T20:50:38.493Z,27.27
2019-03-24T20:53:17.535Z,28.63
2019-03-24T20:55:39.046Z,25.50
2019-03-24T20:58:08.466Z,25.77
2019-03-24T21:00:38.206Z,26.10
2019-03-24T21:03:08.454Z,28.00
2019-03-24T21:05:37.931Z,29.00
2019-03-24T21:08:07.446Z,27.77
2019-03-24T21:10:36.940Z,30.43
2019-03-24T21:13:06.535Z,29.83
2019-03-24T21:15:35.939Z,30.77
2019-03-24T21:18:05.539Z,29.77
2019-03-24T21:20:34.941Z,31.50
2019-03-24T21:23:04.643Z,30.17
2019-03-24T21:25:34.045Z,29.93
2019-03-24T21:28:03.465Z,30.20
2019-03-24T21:30:38.243Z,27.10
2019-03-24T21:33:07.735Z,28.57
2019-03-24T21:35:37.249Z,34.17
2019-03-24T21:38:06.881Z,34.70
2019-03-24T21:40:36.356Z,31.57
2019-03-24T21:43:06.533Z,32.00
2019-03-24T21:45:36.344Z,31.83
2019-03-24T21:48:05.943Z,28.87
2019-03-24T21:50:36.605Z,32.33
2019-03-24T21:53:09.194Z,29.77
2019-03-24T21:55:38.835Z,25.27
2019-03-24T21:58:08.249Z,23.60
2019-03-24T22:00:38.001Z,19.30
2019-03-24T22:03:07.495Z,19.73
2019-03-24T22:05:37.208Z,21.60
2019-03-24T22:08:06.814Z,19.00
2019-03-24T22:10:36.275Z,19.00
2019-03-24T22:13:05.837Z,20.53
2019-03-24T22:15:35.234Z,17.67
2019-03-24T22:18:04.822Z,19.53
2019-03-24T22:20:34.217Z,16.70
2019-03-24T22:23:03.635Z,14.57
2019-03-24T22:25:33.034Z,17.87
2019-03-24T22:28:02.430Z,17.57
2019-03-24T22:30:31.907Z,18.03
2019-03-24T22:33:01.269Z,19.37
2019-03-24T22:35:30.686Z,18.30
2019-03-24T22:38:00.186Z,16.07
2019-03-24T22:40:29.609Z,18.43
2019-03-24T22:42:59.016Z,16.43
2019-03-24T22:45:28.431Z,15.03
2019-03-24T22:47:57.824Z,15.43
2019-03-24T22:50:27.236Z,15.47
2019-03-24T22:52:56.715Z,13.13
2019-03-24T22:55:26.135Z,15.37
2019-03-24T22:57:55.542Z,16.03
2019-03-24T23:00:26.584Z,13.30
2019-03-24T23:02:56.074Z,13.87
2019-03-24T23:05:25.498Z,12.87
2019-03-24T23:07:54.890Z,13.00
2019-03-24T23:10:24.333Z,12.27
2019-03-24T23:12:53.773Z,12.57
2019-03-24T23:15:23.198Z,10.83
2019-03-24T23:17:52.584Z,12.40
2019-03-24T23:20:21.992Z,12.90
2019-03-24T23:22:51.392Z,13.47
2019-03-24T23:25:20.820Z,12.43
2019-03-24T23:27:50.223Z,10.93
2019-03-24T23:30:19.649Z,13.97
2019-03-24T23:32:49.049Z,11.60
2019-03-24T23:35:18.479Z,11.17
2019-03-24T23:37:47.884Z,10.70
2019-03-24T23:40:17.548Z,10.60
2019-03-24T23:42:46.939Z,14.90
2019-03-24T23:45:16.357Z,13.83
2019-03-24T23:47:45.811Z,12.33
2019-03-24T23:50:15.443Z,12.00
2019-03-24T23:52:44.833Z,10.63
2019-03-24T23:55:14.246Z,15.87
2019-03-24T23:57:43.643Z,12.63
